Latest Weather Observations for Leonora Airport

IDW60801

Issued at 7:33 pm WST Friday 27 February 2015 (issued every 30 minutes, with the page automatically refreshed every 10 minutes)

About weather observations | Map of weather stations | Latest weather observations for WA | Other Formats
Station Details ID: 012241 Name: LEONORA AERO Lat: -28.88 Lon: 121.32 Height: 370.0 m
Data from the previous 72 hours. | See also: Recent months for locations in Western Australia
Date/Time
WST
Temp
°C
App
Temp
°C
Dew
Point
Rel
Hum
%
Delta-T
°C
Wind Press
QNH
hPa
Press
MSL
hPa
Rain
since 9 am
mm
Dir
 
Spd
km/h
Gust
km/h
Spd
kts
Gust
kts
27/07:30pm 28.4 27.5 19.9 60 5.6 N 24 33 13 18 1006.6 1004.1 0.2
27/07:00pm 29.2 28.2 20.4 59 5.9 N 26 39 14 21 1005.9 1003.4 0.2
27/06:30pm 29.8 30.1 20.4 57 6.3 N 19 24 10 13 1005.2 1002.6 0.2
27/06:00pm 30.3 29.3 19.6 52 7.1 NNW 24 37 13 20 1004.9 1002.3 0.2
27/05:30pm 30.7 29.2 19.4 51 7.5 NNW 26 43 14 23 1004.3 1001.7 0.2
27/05:27pm 30.3 29.4 19.0 50 7.4 NNW 22 41 12 22 1004.4 1001.8 0.2
27/05:11pm 35.4 33.9 16.7 33 12.1 W 20 46 11 25 1004.1 1001.5 0.2
27/05:00pm 36.6 36.2 16.2 29 13.2 WSW 13 22 7 12 1003.8 1001.3 0.2
27/04:30pm 37.3 36.7 15.7 27 13.9 SW 13 26 7 14 1003.6 1001.1 0.2
27/04:00pm 37.3 37.0 17.3 30 13.2 SSW 15 20 8 11 1003.7 1001.2 0.2
27/03:30pm 35.7 34.3 17.9 35 11.7 SW 22 39 12 21 1003.9 1001.4 0.2
27/03:00pm 37.2 37.0 17.7 31 12.9 W 15 26 8 14 1004.1 1001.5 0.2
27/02:30pm 37.2 37.0 17.7 31 12.9 WNW 15 24 8 13 1004.2 1001.6 0.2
27/02:00pm 36.8 36.3 17.9 33 12.5 WSW 17 28 9 15 1005.0 1002.4 0.2
27/01:30pm 35.9 35.7 19.3 37 11.1 W 19 26 10 14 1005.6 1003.0 0.2
27/01:00pm 34.8 36.4 20.7 43 9.6 W 13 24 7 13 1006.0 1003.5 0.2
27/12:30pm 34.8 35.9 20.4 43 9.8 W 15 28 8 15 1006.3 1003.8 0.2
27/12:00pm 33.5 34.3 20.6 46 8.8 W 17 24 9 13 1006.7 1004.2 0.2
27/11:30am 33.4 34.3 21.5 49 8.2 WNW 19 28 10 15 1007.0 1004.4 0.2
27/11:00am 32.3 33.0 21.5 53 7.4 NW 20 26 11 14 1007.4 1004.8 0.2
27/10:30am 30.8 32.1 22.4 61 5.8 NW 19 26 10 14 1007.7 1005.1 0.2
27/10:00am 30.4 32.0 22.8 64 5.3 NW 19 24 10 13 1007.8 1005.2 0.2
27/09:30am 30.1 31.1 22.8 65 5.1 NW 22 30 12 16 1008.2 1005.7 0.2
27/09:00am 29.9 31.3 22.9 66 4.9 NW 20 28 11 15 1008.2 1005.7 15.6
27/08:30am 28.8 30.6 23.2 71 3.9 NW 19 24 10 13 1008.2 1005.7 15.6
27/08:00am 27.7 29.1 22.6 74 3.5 WNW 19 26 10 14 1008.3 1005.8 15.6
27/07:30am 26.6 29.3 22.9 80 2.5 NW 13 19 7 10 1007.7 1005.1 15.6
27/07:00am 25.9 28.9 23.4 86 1.7 N 13 17 7 9 1007.4 1004.8 15.6
27/06:30am 25.0 28.6 23.1 89 1.3 N 9 11 5 6 1007.2 1004.6 15.6
27/06:00am 24.8 28.6 22.7 88 1.4 N 7 13 4 7 1007.0 1004.4 15.6
27/05:30am 24.8 28.5 22.5 87 1.6 N 7 11 4 6 1006.5 1004.0 15.6
27/05:00am 24.7 27.9 22.4 87 1.6 NNE 9 11 5 6 1006.3 1003.8 15.6
27/04:30am 24.8 29.5 21.9 84 2.0 CALM 0 7 0 4 1006.2 1003.7 15.6
27/04:00am 24.8 28.2 21.7 83 2.1 NE 6 7 3 4 1006.0 1003.5 15.6
27/03:30am 25.0 28.2 21.7 82 2.2 NNE 7 9 4 5 1006.2 1003.7 15.6
27/03:00am 25.1 27.9 21.6 81 2.4 NNE 9 11 5 6 1006.1 1003.6 15.6
27/02:30am 25.4 28.2 21.5 79 2.6 NNE 9 15 5 8 1006.1 1003.6 15.6
27/02:00am 25.7 28.2 21.8 79 2.6 NE 11 15 6 8 1006.2 1003.7 15.6
27/01:30am 25.7 29.0 22.6 83 2.1 NE 9 13 5 7 1006.4 1003.9 15.6
27/01:00am 25.8 30.4 23.1 85 1.9 ENE 4 7 2 4 1006.9 1004.3 15.6
27/12:30am 25.8 31.1 23.1 85 1.9 CALM 0 0 0 0 1007.3 1004.7 15.6
 
Date/Time
WST
Temp
°C
App
Temp
°C
Dew
Point
Rel
Hum
%
Delta-T
°C
Wind Press
QNH
hPa
Press
MSL
hPa
Rain
since 9 am
mm
Dir
 
Spd
km/h
Gust
km/h
Spd
kts
Gust
kts
26/11:30pm 26.1 30.2 22.2 79 2.7 NNW 4 13 2 7 1007.8 1005.2 15.6
26/11:00pm 25.8 29.3 22.9 84 2.0 NNE 9 13 5 7 1007.2 1004.6 15.6
26/10:30pm 25.8 29.7 22.9 84 2.0 N 7 11 4 6 1007.6 1005.0 15.6
26/10:00pm 25.7 29.3 23.0 85 1.9 ENE 9 13 5 7 1007.5 1004.9 15.6
26/09:30pm 25.8 29.8 23.1 85 1.9 E 7 11 4 6 1007.3 1004.7 15.6
26/09:00pm 25.7 29.3 23.0 85 1.9 SE 9 11 5 6 1007.2 1004.6 15.6
26/08:30pm 25.1 27.6 23.2 89 1.3 S 15 24 8 13 1007.3 1004.7 15.6
26/08:00pm 25.6 29.0 22.7 84 2.0 NE 9 15 5 8 1006.1 1003.6 15.6
26/07:30pm 25.5 27.9 23.0 86 1.7 NE 15 20 8 11 1005.0 1002.4 15.6
26/07:00pm 25.2 27.9 22.9 87 1.6 NE 13 15 7 8 1004.8 1002.2 15.6
26/06:30pm 25.2 27.5 22.7 86 1.7 NE 15 22 8 12 1005.3 1002.7 15.6
26/06:00pm 25.3 26.9 22.2 83 2.1 N 17 22 9 12 1005.6 1003.0 15.2
26/05:30pm 25.9 26.0 21.8 78 2.8 N 24 30 13 16 1005.8 1003.3 14.6
26/05:14pm 25.9 26.6 22.2 80 2.5 NNW 22 35 12 19 1006.6 1004.1 14.6
26/05:00pm 25.7 29.3 23.0 85 1.9 NNW 9 15 5 8 1005.9 1003.4 14.6
26/04:30pm 25.4 27.9 22.5 84 2.0 NE 13 20 7 11 1004.7 1002.1 14.6
26/04:00pm 25.2 28.9 23.3 89 1.3 ENE 9 17 5 9 1005.2 1002.6 14.6
26/03:56pm 25.1 28.8 22.6 86 1.7 NNE 7 11 4 6 1005.5 1002.9 14.6
26/03:32pm 25.3 23.7 20.8 76 3.0 WSW 30 43 16 23 1007.3 1004.7 10.8
26/03:30pm 26.8 26.1 21.8 74 3.4 SW 28 43 15 23 1007.4 1004.8 9.6
26/03:29pm 27.2 26.2 21.2 69 4.0 SW 28 43 15 23 1007.4 1004.8 9.0
26/03:00pm 29.6 27.3 20.2 57 6.3 SSW 32 50 17 27 1005.3 1002.7 8.8
26/02:55pm 31.0 30.9 20.0 52 7.4 SE 20 46 11 25 1005.7 1003.1 8.8
26/02:30pm 33.2 33.8 21.0 48 8.3 NE 19 28 10 15 1004.7 1002.1 8.8
26/02:00pm 31.4 33.3 22.7 60 6.0 NNE 17 24 9 13 1004.7 1002.1 8.6
26/01:35pm 28.8 30.2 21.8 66 4.8 ENE 17 24 9 13 1005.7 1003.1 8.6
26/01:30pm 26.4 27.1 20.5 70 3.9 ENE 17 24 9 13 1005.7 1003.1 8.6
26/01:17pm 24.8 21.2 20.9 79 2.6 NW 41 76 22 41 1005.8 1003.3 8.6
26/01:14pm 22.8 15.5 19.2 80 2.3 NW 56 82 30 44 1007.1 1004.5 6.6
26/01:13pm 22.4 14.4 18.8 80 2.3 NW 59 82 32 44 1007.1 1004.5 5.4
26/01:10pm 23.1 14.1 18.4 75 3.0 NW 63 82 34 44 1006.5 1004.0 1.8
26/01:04pm 28.3 23.8 19.8 60 5.6 NNW 43 82 23 44 1005.5 1002.9 0.0
26/01:03pm 29.6 26.1 19.6 55 6.6 NNW 37 80 20 43 1005.5 1002.9 0.0
26/01:02pm 30.9 28.3 19.9 52 7.3 NNW 33 72 18 39 1005.5 1002.9 0.0
26/01:00pm 33.6 31.9 18.9 41 9.8 NNW 26 59 14 32 1005.6 1003.0 0.0
26/12:59pm 36.1 34.7 18.7 36 11.6 NNW 24 54 13 29 1005.5 1002.9 0.0
26/12:30pm 37.5 36.3 17.5 30 13.2 NNW 20 33 11 18 1005.8 1003.3 0.0
26/12:00pm 37.6 37.0 17.6 31 13.2 N 17 28 9 15 1006.6 1004.1 0.0
26/11:30am 36.2 35.9 18.3 34 11.9 NW 17 30 9 16 1007.4 1004.8 0.0
26/11:00am 34.8 36.4 17.9 36 11.1 NNE 6 13 3 7 1008.1 1005.5 0.0
26/10:30am 33.5 35.2 18.4 40 9.9 N 7 15 4 8 1008.7 1006.2 0.0
26/10:00am 32.5 35.7 19.7 46 8.6 N 2 7 1 4 1009.2 1006.7 0.0
26/09:30am 30.4 33.1 19.4 51 7.3 ESE 4 9 2 5 1009.6 1007.1 0.0
26/09:00am 29.5 31.9 20.1 57 6.3 SSE 7 11 4 6 1010.2 1007.6 0.4
26/08:30am 28.2 28.8 20.2 62 5.3 SSE 17 24 9 13 1010.3 1007.7 0.4
26/08:00am 28.5 30.0 20.5 62 5.4 S 13 20 7 11 1010.0 1007.4 0.4
26/07:30am 28.3 31.2 19.8 60 5.6 WNW 4 11 2 6 1010.1 1007.5 0.4
26/07:00am 27.8 29.0 19.8 61 5.3 NE 13 17 7 9 1009.6 1007.1 0.4
26/06:30am 27.7 29.9 20.3 64 4.9 NNE 9 13 5 7 1009.5 1007.0 0.4
26/06:00am 27.1 28.5 20.4 66 4.5 NE 13 24 7 13 1009.1 1006.6 0.4
26/05:30am 27.0 28.0 20.3 66 4.4 NE 15 19 8 10 1008.9 1006.4 0.4
26/05:00am 26.9 28.4 20.5 68 4.3 NE 13 19 7 10 1008.7 1006.2 0.4
26/04:30am 27.0 28.4 20.3 66 4.4 ENE 13 17 7 9 1008.6 1006.1 0.4
26/04:00am 27.1 28.8 20.2 66 4.6 ENE 11 17 6 9 1008.5 1006.0 0.4
26/03:30am 27.2 28.8 20.0 64 4.8 ENE 11 15 6 8 1008.5 1006.0 0.4
26/03:00am 27.2 29.7 20.3 66 4.6 E 7 11 4 6 1008.3 1005.8 0.4
26/02:30am 27.2 28.6 20.3 66 4.6 NE 13 19 7 10 1008.2 1005.7 0.4
26/02:00am 27.4 28.7 20.2 65 4.8 ENE 13 17 7 9 1008.4 1005.9 0.4
26/01:30am 27.6 28.2 20.2 64 4.9 NE 17 20 9 11 1008.6 1006.1 0.4
26/01:00am 28.0 28.9 20.0 61 5.3 ENE 15 20 8 11 1008.8 1006.3 0.4
26/12:30am 28.2 28.1 20.0 61 5.4 ENE 20 26 11 14 1009.0 1006.5 0.4
26/12:00am 28.2 29.5 20.2 62 5.3 ENE 13 19 7 10 1009.3 1006.8 0.4
 
Date/Time
WST
Temp
°C
App
Temp
°C
Dew
Point
Rel
Hum
%
Delta-T
°C
Wind Press
QNH
hPa
Press
MSL
hPa
Rain
since 9 am
mm
Dir
 
Spd
km/h
Gust
km/h
Spd
kts
Gust
kts
25/11:30pm 28.3 29.7 20.3 62 5.3 ENE 13 19 7 10 1009.4 1006.9 0.4
25/11:00pm 28.6 29.5 20.1 60 5.7 ENE 15 20 8 11 1009.5 1007.0 0.4
25/10:30pm 28.8 30.0 20.0 59 5.8 ENE 13 20 7 11 1009.8 1007.2 0.4
25/10:00pm 29.1 30.2 19.7 57 6.2 ENE 13 19 7 10 1010.0 1007.4 0.4
25/09:30pm 29.4 29.7 19.7 56 6.4 ENE 17 20 9 11 1010.3 1007.7 0.4
25/09:00pm 29.8 30.1 19.5 54 6.8 ENE 17 24 9 13 1010.3 1007.7 0.4
25/08:30pm 30.2 30.7 19.2 51 7.3 ENE 15 20 8 11 1010.1 1007.5 0.4
25/08:00pm 30.2 29.9 19.2 51 7.3 ENE 19 24 10 13 1009.6 1007.1 0.4
25/07:30pm 30.7 29.8 19.1 50 7.7 ENE 22 30 12 16 1009.4 1006.9 0.4
25/07:00pm 31.3 30.6 18.6 46 8.3 E 20 28 11 15 1009.2 1006.7 0.4
25/06:30pm 31.9 31.5 18.1 43 9.0 ENE 17 20 9 11 1008.7 1006.2 0.4
25/06:00pm 32.1 32.0 17.9 42 9.3 ENE 15 20 8 11 1008.5 1006.0 0.4
25/05:30pm 31.5 32.3 19.8 49 7.8 NE 15 20 8 11 1008.6 1006.1 0.4
25/05:00pm 29.8 29.5 20.4 57 6.3 NNE 22 28 12 15 1008.8 1006.3 0.4
25/04:30pm 31.4 29.0 19.1 48 8.1 NNE 30 41 16 22 1008.8 1006.3 0.4
25/04:24pm 31.4 29.2 18.7 46 8.4 NNE 28 39 15 21 1008.6 1006.1 0.4
25/04:00pm 34.9 35.6 16.2 32 12.0 SE 7 17 4 9 1008.5 1006.0 0.4
25/03:30pm 33.8 33.4 16.2 35 11.3 S 13 20 7 11 1008.5 1006.0 0.4
25/03:00pm 34.5 34.9 17.3 36 11.2 SSE 11 15 6 8 1008.8 1006.3 0.2
25/02:30pm 33.2 33.1 17.0 38 10.5 SSE 13 20 7 11 1008.8 1006.3 0.2
25/02:00pm 32.7 33.5 18.1 42 9.6 ESE 11 15 6 8 1009.0 1006.5 0.2
25/01:30pm 31.1 31.0 18.8 48 8.1 NW 17 37 9 20 1009.5 1007.0 0.2
25/01:00pm 34.2 34.3 15.6 32 11.8 NNE 9 15 5 8 1009.4 1006.9 0.0
25/12:30pm 34.5 34.6 15.4 32 12.1 E 9 20 5 11 1009.9 1007.3 0.0
25/12:00pm 33.9 33.2 15.4 33 11.7 NE 13 20 7 11 1010.6 1008.0 0.0
25/11:30am 32.6 32.0 15.6 36 10.7 N 13 22 7 12 1011.1 1008.6 0.0
25/11:00am 31.8 31.2 15.7 37 10.2 NNE 13 24 7 13 1011.6 1009.1 0.0
25/10:30am 30.9 30.6 16.5 42 9.2 NNE 13 22 7 12 1012.1 1009.6 0.0
25/10:00am 29.0 28.6 16.2 46 8.1 N 13 20 7 11 1012.6 1010.0 0.0
25/09:30am 29.1 28.0 16.3 46 8.1 NNE 17 22 9 12 1012.9 1010.3 0.0
25/09:00am 28.6 27.2 16.5 48 7.6 N 19 26 10 14 1013.1 1010.6 0.0
25/08:30am 27.9 26.7 16.2 49 7.3 NNE 17 24 9 13 1013.1 1010.6 0.0
25/08:00am 27.4 26.2 16.1 50 7.1 NNE 17 20 9 11 1013.2 1010.7 0.0
25/07:30am 27.1 26.2 15.8 50 7.0 NNE 15 22 8 12 1013.0 1010.4 0.0
25/07:00am 26.8 25.1 15.8 51 6.8 NE 19 24 10 13 1012.7 1010.1 0.0
25/06:30am 25.7 24.7 15.7 54 6.2 NE 15 20 8 11 1012.4 1009.9 0.0
25/06:00am 25.5 24.1 15.5 54 6.2 NE 17 24 9 13 1012.1 1009.6 0.0
25/05:30am 25.6 24.6 15.6 54 6.2 NE 15 20 8 11 1011.8 1009.3 0.0
25/05:00am 25.8 25.1 15.5 53 6.3 NE 13 17 7 9 1011.5 1009.0 0.0
25/04:30am 26.1 25.8 15.5 52 6.5 NE 11 17 6 9 1011.3 1008.8 0.0
25/04:00am 26.4 26.1 15.4 50 6.8 NE 11 13 6 7 1011.1 1008.6 0.0
25/03:30am 26.7 26.0 15.4 50 7.0 NNE 13 17 7 9 1011.2 1008.7 0.0
25/03:00am 26.7 26.5 15.7 51 6.8 NNE 11 15 6 8 1011.2 1008.7 0.0
25/02:30am 26.9 26.9 16.2 52 6.7 NNE 11 17 6 9 1011.3 1008.8 0.0
25/02:00am 27.1 25.6 16.4 52 6.7 NNE 19 24 10 13 1011.6 1009.1 0.0
25/01:30am 27.3 25.7 16.6 52 6.7 NNE 20 30 11 16 1011.8 1009.3 0.0
25/01:00am 26.9 25.7 17.4 56 6.1 NNE 20 30 11 16 1012.2 1009.7 0.0
25/12:30am 27.8 26.2 16.4 50 7.2 NE 20 30 11 16 1012.3 1009.8 0.0
25/12:00am 28.2 28.1 16.1 47 7.6 NE 11 15 6 8 1012.2 1009.7 0.0
 
Date/Time
WST
Temp
°C
App
Temp
°C
Dew
Point
Rel
Hum
%
Delta-T
°C
Wind Press
QNH
hPa
Press
MSL
hPa
Rain
since 9 am
mm
Dir
 
Spd
km/h
Gust
km/h
Spd
kts
Gust
kts
24/11:30pm 28.4 26.5 15.7 46 7.9 NE 20 28 11 15 1012.1 1009.6 0.0
24/11:00pm 28.8 26.8 15.0 43 8.5 NE 19 26 10 14 1012.3 1009.8 0.0
24/10:30pm 29.1 26.0 14.5 41 9.0 NNE 24 35 13 19 1012.7 1010.1 0.0
24/10:00pm 29.7 26.8 13.9 38 9.6 NNE 22 32 12 17 1012.7 1010.1 0.0
24/09:30pm 30.3 26.9 13.6 36 10.2 NNE 24 35 13 19 1012.6 1010.0 0.0
24/09:00pm 30.9 27.9 13.7 35 10.5 NE 22 33 12 18 1012.7 1010.1 0.0
24/08:30pm 31.3 28.8 14.0 35 10.6 NE 20 28 11 15 1012.4 1009.9 0.0
24/08:00pm 31.7 28.4 13.9 34 10.9 NE 24 39 13 21 1012.2 1009.7 0.0

Other Formats:

Comma delimited format used in spreadsheet applications
http://www.bom.gov.au/fwo/IDW60801/IDW60801.94450.axf

JavaScript Object Notation format (JSON) in row-major order
http://www.bom.gov.au/fwo/IDW60801/IDW60801.94450.json